createdAt,value
2019-05-22T00:02:39.050Z,6.97
2019-05-22T00:05:25.335Z,6.75
2019-05-22T00:08:00.592Z,6.90
2019-05-22T00:10:34.608Z,7.15
2019-05-22T00:13:08.160Z,6.97
2019-05-22T00:15:40.169Z,7.05
2019-05-22T00:18:13.343Z,6.53
2019-05-22T00:20:45.305Z,6.33
2019-05-22T00:23:19.108Z,6.10
2019-05-22T00:25:53.529Z,6.28
2019-05-22T00:28:25.900Z,6.00
2019-05-22T00:30:59.418Z,6.15
2019-05-22T00:33:31.590Z,5.70
2019-05-22T00:36:04.644Z,5.70
2019-05-22T00:38:36.529Z,5.67
2019-05-22T00:41:10.034Z,5.50
2019-05-22T00:43:43.622Z,5.78
2019-05-22T00:46:19.467Z,5.87
2019-05-22T00:48:52.476Z,5.75
2019-05-22T00:51:29.972Z,5.45
2019-05-22T00:54:05.618Z,5.20
2019-05-22T00:56:57.326Z,5.22
2019-05-22T00:59:37.201Z,5.17
2019-05-22T01:02:10.483Z,5.08
2019-05-22T01:04:43.808Z,5.40
2019-05-22T01:07:19.434Z,5.03
2019-05-22T01:09:53.133Z,4.90
2019-05-22T01:12:27.859Z,4.67
2019-05-22T01:15:04.825Z,5.10
2019-05-22T01:17:38.523Z,5.10
2019-05-22T01:20:14.268Z,4.70
2019-05-22T01:22:47.900Z,4.95
2019-05-22T01:25:24.783Z,5.25
2019-05-22T01:27:58.386Z,5.50
2019-05-22T01:33:30.680Z,6.35
2019-05-22T01:36:04.578Z,7.37
2019-05-22T01:41:23.443Z,8.05
2019-05-22T01:43:57.059Z,8.73
2019-05-22T01:46:33.015Z,8.88
2019-05-22T01:49:06.931Z,8.78
2019-05-22T01:51:38.980Z,9.05
2019-05-22T01:54:11.432Z,9.95
2019-05-22T01:56:43.577Z,9.10
2019-05-22T01:59:15.595Z,9.05
2019-05-22T02:01:48.679Z,9.43
2019-05-22T02:04:22.162Z,8.85
2019-05-22T02:06:55.784Z,9.10
2019-05-22T02:09:34.175Z,8.33
2019-05-22T02:12:18.015Z,8.45
2019-05-22T02:14:53.059Z,8.63
2019-05-22T02:17:31.787Z,8.63
2019-05-22T02:20:06.842Z,9.08
2019-05-22T02:22:41.039Z,9.23
2019-05-22T02:25:14.438Z,9.10
2019-05-22T02:27:48.137Z,8.48
2019-05-22T02:30:23.503Z,7.40
2019-05-22T02:32:55.890Z,8.33
2019-05-22T02:35:29.403Z,8.03
2019-05-22T02:38:01.721Z,8.60
2019-05-22T02:40:38.002Z,8.58
2019-05-22T02:43:11.488Z,8.08
2019-05-22T02:45:43.873Z,6.95
2019-05-22T02:48:17.958Z,6.80
2019-05-22T02:50:50.253Z,7.40
2019-05-22T02:53:22.429Z,6.80
2019-05-22T02:55:55.808Z,7.10
2019-05-22T02:58:28.970Z,7.07
2019-05-22T03:01:05.790Z,6.85
2019-05-22T03:03:37.786Z,5.75
2019-05-22T03:06:13.664Z,7.42
2019-05-22T03:09:16.283Z,6.53
2019-05-22T03:12:01.036Z,7.08
2019-05-22T03:14:35.267Z,7.47
2019-05-22T03:17:10.082Z,6.72
2019-05-22T03:19:48.617Z,7.42
2019-05-22T03:22:27.940Z,7.60
2019-05-22T03:25:03.946Z,7.12
2019-05-22T03:27:50.499Z,7.50
2019-05-22T03:30:27.967Z,6.97
2019-05-22T03:33:02.572Z,6.97
2019-05-22T03:35:44.204Z,6.90
2019-05-22T03:38:18.309Z,7.42
2019-05-22T03:43:28.473Z,7.47
2019-05-22T03:46:01.685Z,7.30
2019-05-22T03:48:37.619Z,7.60
2019-05-22T03:51:15.161Z,7.95
2019-05-22T03:53:48.836Z,8.53
2019-05-22T03:56:22.438Z,9.03
2019-05-22T03:58:55.519Z,8.20
2019-05-22T04:01:29.088Z,8.83
2019-05-22T04:04:02.823Z,7.65
2019-05-22T04:06:37.320Z,8.45
2019-05-22T04:09:20.078Z,8.40
2019-05-22T04:11:52.809Z,8.38
2019-05-22T04:14:27.865Z,7.90
2019-05-22T04:16:59.843Z,7.58
2019-05-22T04:19:47.449Z,7.50
2019-05-22T04:22:06.315Z,8.53
2019-05-22T04:24:41.062Z,8.35
2019-05-22T04:27:13.115Z,8.60
2019-05-22T04:29:45.580Z,9.98
2019-05-22T04:32:19.181Z,10.60
2019-05-22T04:37:23.918Z,10.55
2019-05-22T04:39:58.373Z,11.65
2019-05-22T04:42:31.148Z,12.35
2019-05-22T04:45:09.598Z,11.20
2019-05-22T04:47:41.764Z,10.65
2019-05-22T04:50:15.667Z,10.53
2019-05-22T04:52:48.490Z,12.33
2019-05-22T04:55:23.866Z,12.85
2019-05-22T04:57:57.638Z,11.80
2019-05-22T05:00:30.936Z,11.83
2019-05-22T05:03:03.119Z,13.40
2019-05-22T05:05:37.751Z,14.05
2019-05-22T05:08:10.892Z,14.68
2019-05-22T05:10:44.425Z,14.98
2019-05-22T05:13:16.205Z,13.58
2019-05-22T05:15:47.961Z,15.63
2019-05-22T05:18:20.167Z,15.65
2019-05-22T05:20:52.360Z,14.65
2019-05-22T05:23:24.362Z,15.40
2019-05-22T05:25:56.198Z,15.65
2019-05-22T05:28:28.398Z,14.47
2019-05-22T05:31:00.466Z,15.88
2019-05-22T05:33:33.833Z,16.50
2019-05-22T05:36:07.276Z,15.38
2019-05-22T05:38:39.624Z,15.88
2019-05-22T05:41:11.808Z,14.28
2019-05-22T05:43:43.774Z,16.27
2019-05-22T05:46:15.915Z,15.93
2019-05-22T05:48:49.003Z,16.20
2019-05-22T05:51:23.529Z,16.85
2019-05-22T05:54:03.077Z,19.32
2019-05-22T05:56:37.668Z,15.75
2019-05-22T05:59:12.107Z,15.75
2019-05-22T06:01:48.258Z,14.43
2019-05-22T06:04:35.076Z,16.32
2019-05-22T06:07:21.172Z,15.48
2019-05-22T06:09:55.807Z,15.40
2019-05-22T06:12:27.978Z,17.27
2019-05-22T06:15:00.651Z,18.77
2019-05-22T06:17:51.998Z,16.30
2019-05-22T06:20:24.340Z,14.73
2019-05-22T06:23:17.098Z,13.98
2019-05-22T06:25:49.385Z,14.73
2019-05-22T06:28:23.419Z,13.72
2019-05-22T06:30:56.458Z,11.00
2019-05-22T06:33:35.745Z,12.37
2019-05-22T06:36:12.531Z,10.50
2019-05-22T06:38:53.677Z,11.22
2019-05-22T06:41:28.541Z,12.00
2019-05-22T06:44:21.335Z,12.37
2019-05-22T06:46:53.789Z,12.15
2019-05-22T06:49:34.671Z,11.50
2019-05-22T06:52:07.848Z,11.05
2019-05-22T06:54:40.672Z,10.68
2019-05-22T06:57:14.275Z,11.88
2019-05-22T07:02:20.506Z,11.78
2019-05-22T07:04:52.782Z,11.43
2019-05-22T07:07:24.987Z,11.05
2019-05-22T07:09:56.877Z,11.53
2019-05-22T07:12:29.405Z,11.68
2019-05-22T07:15:04.545Z,12.20
2019-05-22T07:17:37.687Z,11.33
2019-05-22T07:20:11.443Z,11.15
2019-05-22T07:25:15.527Z,10.95
2019-05-22T07:27:48.348Z,11.48
2019-05-22T07:30:21.088Z,15.72
2019-05-22T07:32:53.093Z,13.08
2019-05-22T07:35:42.372Z,12.15
2019-05-22T07:38:00.201Z,10.93
2019-05-22T07:40:32.285Z,12.50
2019-05-22T07:43:04.388Z,12.53
2019-05-22T07:45:37.601Z,10.75
2019-05-22T07:48:11.277Z,10.43
2019-05-22T07:50:48.404Z,11.50
2019-05-22T07:53:19.739Z,10.15
2019-05-22T07:55:54.086Z,9.88
2019-05-22T07:58:27.961Z,9.50
2019-05-22T08:03:34.544Z,8.93
2019-05-22T08:06:09.487Z,8.73
2019-05-22T08:08:43.920Z,8.38
2019-05-22T08:11:16.400Z,8.33
2019-05-22T08:13:48.656Z,8.75
2019-05-22T08:16:21.750Z,9.00
2019-05-22T08:18:54.045Z,7.85
2019-05-22T08:21:26.511Z,7.58
2019-05-22T08:23:59.220Z,7.95
2019-05-22T08:26:32.225Z,7.90
2019-05-22T08:29:05.047Z,8.68
2019-05-22T08:31:37.945Z,8.38
2019-05-22T08:34:10.184Z,9.40
2019-05-22T08:36:42.292Z,8.73
2019-05-22T08:39:14.648Z,8.23
2019-05-22T08:41:46.683Z,7.70
2019-05-22T08:44:18.564Z,8.75
2019-05-22T08:46:50.225Z,8.48
2019-05-22T08:49:22.676Z,8.35
2019-05-22T08:51:54.961Z,7.35
2019-05-22T08:54:27.794Z,6.47
2019-05-22T08:56:59.822Z,6.35
2019-05-22T08:59:32.393Z,7.40
2019-05-22T09:02:05.174Z,6.97
2019-05-22T09:04:37.250Z,7.33
2019-05-22T09:07:08.893Z,7.22
2019-05-22T09:09:40.756Z,7.50
2019-05-22T09:12:13.552Z,7.37
2019-05-22T09:14:45.535Z,7.08
2019-05-22T09:17:17.767Z,6.65
2019-05-22T09:19:50.855Z,6.20
2019-05-22T09:22:39.159Z,5.70
2019-05-22T09:24:56.933Z,6.28
2019-05-22T09:27:29.186Z,6.60
2019-05-22T09:30:01.477Z,6.75
2019-05-22T09:32:33.013Z,6.15
2019-05-22T09:35:06.425Z,6.30
2019-05-22T09:37:38.595Z,5.87
2019-05-22T09:40:11.883Z,6.05
2019-05-22T09:42:43.948Z,5.55
2019-05-22T09:45:16.502Z,5.20
2019-05-22T09:47:48.694Z,5.50
2019-05-22T09:50:23.223Z,5.35
2019-05-22T09:52:58.030Z,5.50
2019-05-22T09:55:29.799Z,5.10
2019-05-22T09:58:01.776Z,5.50
2019-05-22T10:00:34.142Z,5.20
2019-05-22T10:03:07.227Z,5.85
2019-05-22T10:05:39.281Z,5.90
2019-05-22T10:08:11.054Z,5.85
2019-05-22T10:10:43.817Z,5.60
2019-05-22T10:13:15.909Z,6.30
2019-05-22T10:15:47.743Z,7.30
2019-05-22T10:18:20.286Z,6.15
2019-05-22T10:20:52.315Z,7.30
2019-05-22T10:23:24.863Z,6.60
2019-05-22T10:25:56.426Z,6.10
2019-05-22T10:28:28.786Z,6.30
2019-05-22T10:31:01.168Z,5.62
2019-05-22T10:33:33.448Z,5.65
2019-05-22T10:36:05.615Z,6.10
2019-05-22T10:38:37.459Z,4.85
2019-05-22T10:41:10.273Z,4.30
2019-05-22T10:43:41.974Z,4.28
2019-05-22T10:46:14.182Z,4.37
2019-05-22T10:48:47.418Z,4.60
2019-05-22T10:51:19.626Z,4.97
2019-05-22T10:53:51.798Z,5.20
2019-05-22T10:56:25.006Z,5.28
2019-05-22T10:58:57.485Z,4.80
2019-05-22T11:01:30.964Z,4.08
2019-05-22T11:04:02.840Z,3.70
2019-05-22T11:06:34.676Z,4.28
2019-05-22T11:09:07.259Z,5.12
2019-05-22T11:11:39.989Z,4.67
2019-05-22T11:14:12.498Z,4.60
2019-05-22T11:16:45.629Z,4.97
2019-05-22T11:19:17.918Z,4.45
2019-05-22T11:21:50.344Z,4.70
2019-05-22T11:24:22.231Z,4.67
2019-05-22T11:26:53.759Z,5.30
2019-05-22T11:29:25.434Z,5.08
2019-05-22T11:31:59.190Z,5.17
2019-05-22T11:34:31.044Z,8.33
2019-05-22T11:37:03.469Z,9.43
2019-05-22T11:39:39.823Z,8.53
2019-05-22T11:42:14.067Z,7.05
2019-05-22T11:44:46.573Z,6.40
2019-05-22T11:47:18.696Z,8.25
2019-05-22T11:49:50.630Z,13.28
2019-05-22T11:52:23.015Z,17.10
2019-05-22T11:54:54.897Z,10.70
2019-05-22T11:57:26.860Z,10.98
2019-05-22T11:59:59.949Z,10.05
2019-05-22T12:02:32.110Z,7.75
2019-05-22T12:05:06.051Z,8.33
2019-05-22T12:10:12.534Z,6.78
2019-05-22T12:12:45.783Z,6.42
2019-05-22T12:15:21.132Z,6.08
2019-05-22T12:17:53.095Z,6.33
2019-05-22T12:20:26.396Z,5.78
2019-05-22T12:22:58.461Z,5.85
2019-05-22T12:25:30.768Z,6.05
2019-05-22T12:28:03.150Z,5.50
2019-05-22T12:30:36.120Z,5.80
2019-05-22T12:33:13.777Z,4.75
2019-05-22T12:35:43.400Z,5.03
2019-05-22T12:38:15.617Z,4.72
2019-05-22T12:40:47.427Z,4.30
2019-05-22T12:43:19.388Z,4.10
2019-05-22T12:45:51.357Z,4.47
2019-05-22T12:48:23.397Z,4.00
2019-05-22T12:50:55.667Z,3.65
2019-05-22T12:53:27.648Z,3.65
2019-05-22T12:56:00.366Z,4.10
2019-05-22T12:58:34.029Z,3.60
2019-05-22T13:01:06.417Z,3.22
2019-05-22T13:03:39.379Z,3.25
2019-05-22T13:06:13.045Z,3.10
2019-05-22T13:08:45.455Z,3.20
2019-05-22T13:11:17.433Z,3.65
2019-05-22T13:13:51.852Z,3.33
2019-05-22T13:16:24.573Z,3.35
2019-05-22T13:18:57.720Z,3.25
2019-05-22T13:21:34.413Z,3.20
2019-05-22T13:24:09.247Z,3.65
2019-05-22T13:26:42.218Z,3.30
2019-05-22T13:29:15.507Z,3.37
2019-05-22T13:31:49.927Z,3.20
2019-05-22T13:34:23.331Z,3.72
2019-05-22T13:36:56.948Z,3.87
2019-05-22T13:39:30.710Z,4.87
2019-05-22T13:42:02.767Z,5.03
2019-05-22T13:44:37.388Z,4.80
2019-05-22T13:47:12.093Z,5.10
2019-05-22T13:49:45.410Z,5.50
2019-05-22T13:52:17.381Z,5.60
2019-05-22T13:54:50.375Z,5.40
2019-05-22T13:57:22.774Z,5.97
2019-05-22T13:59:54.733Z,6.17
2019-05-22T14:02:27.392Z,5.08
2019-05-22T14:04:59.161Z,5.60
2019-05-22T14:07:31.329Z,5.53
2019-05-22T14:10:03.884Z,6.45
2019-05-22T14:12:36.176Z,6.12
2019-05-22T14:15:08.749Z,7.00
2019-05-22T14:17:40.884Z,6.10
2019-05-22T14:20:13.965Z,5.92
2019-05-22T14:22:46.569Z,5.83
2019-05-22T14:25:20.438Z,6.53
2019-05-22T14:27:52.447Z,6.60
2019-05-22T14:30:27.705Z,6.72
2019-05-22T14:33:04.336Z,6.62
2019-05-22T14:35:47.519Z,6.85
2019-05-22T14:38:10.656Z,6.80
2019-05-22T14:40:43.007Z,6.33
2019-05-22T14:43:14.792Z,5.30
2019-05-22T14:45:46.730Z,4.72
2019-05-22T14:48:18.403Z,4.37
2019-05-22T14:50:50.671Z,4.30
2019-05-22T14:53:22.521Z,3.98
2019-05-22T14:55:55.054Z,4.00
2019-05-22T14:58:28.401Z,4.72
2019-05-22T15:01:00.571Z,4.10
2019-05-22T15:03:33.991Z,5.00
2019-05-22T15:06:06.018Z,5.03
2019-05-22T15:08:37.944Z,4.60
2019-05-22T15:11:10.759Z,5.05
2019-05-22T15:13:42.828Z,4.83
2019-05-22T15:16:14.804Z,4.42
2019-05-22T15:18:46.702Z,4.53
2019-05-22T15:21:19.686Z,4.85
2019-05-22T15:23:52.342Z,5.50
2019-05-22T15:26:24.071Z,5.50
2019-05-22T15:28:56.726Z,5.05
2019-05-22T15:31:28.962Z,5.08
2019-05-22T15:34:02.755Z,5.45
2019-05-22T15:36:34.911Z,5.50
2019-05-22T15:39:08.762Z,5.95
2019-05-22T15:41:41.596Z,5.47
2019-05-22T15:44:13.388Z,6.00
2019-05-22T15:46:46.074Z,6.05
2019-05-22T15:49:19.548Z,6.40
2019-05-22T15:51:52.339Z,6.37
2019-05-22T15:54:26.722Z,6.20
2019-05-22T15:59:30.366Z,5.28
2019-05-22T16:02:05.190Z,6.30
2019-05-22T16:04:39.200Z,6.10
2019-05-22T16:07:12.886Z,6.17
2019-05-22T16:09:45.990Z,6.10
2019-05-22T16:12:18.723Z,6.08
2019-05-22T16:14:51.743Z,5.92
2019-05-22T16:17:24.436Z,5.70
2019-05-22T16:19:57.362Z,6.10
2019-05-22T16:22:30.664Z,6.72
2019-05-22T16:25:03.090Z,6.70
2019-05-22T16:27:36.077Z,5.87
2019-05-22T16:30:08.127Z,6.28
2019-05-22T16:32:41.015Z,6.33
2019-05-22T16:35:13.409Z,6.50
2019-05-22T16:37:46.210Z,6.08
2019-05-22T16:40:18.740Z,6.62
2019-05-22T16:42:52.034Z,6.03
2019-05-22T16:45:25.793Z,6.40
2019-05-22T16:47:59.416Z,6.92
2019-05-22T16:50:32.779Z,6.55
2019-05-22T16:53:08.391Z,5.92
2019-05-22T16:55:41.659Z,6.90
2019-05-22T16:58:14.252Z,7.00
2019-05-22T17:00:47.308Z,6.50
2019-05-22T17:03:19.978Z,6.72
2019-05-22T17:05:51.790Z,6.50
2019-05-22T17:08:24.359Z,6.75
2019-05-22T17:10:59.556Z,6.62
2019-05-22T17:13:32.865Z,6.62
2019-05-22T17:16:05.055Z,6.97
2019-05-22T17:18:47.604Z,7.35
2019-05-22T17:21:13.214Z,7.50
2019-05-22T17:23:45.778Z,6.97
2019-05-22T17:26:18.458Z,7.35
2019-05-22T17:28:50.459Z,8.25
2019-05-22T17:31:24.436Z,7.70
2019-05-22T17:36:28.685Z,7.87
2019-05-22T17:39:01.651Z,8.90
2019-05-22T17:41:35.642Z,8.90
2019-05-22T17:44:10.452Z,8.80
2019-05-22T17:46:46.025Z,8.90
2019-05-22T17:49:19.031Z,9.40
2019-05-22T17:51:51.402Z,9.68
2019-05-22T17:54:23.556Z,10.80
2019-05-22T17:56:56.236Z,9.83
2019-05-22T17:59:28.311Z,10.25
2019-05-22T18:02:00.656Z,10.03
2019-05-22T18:04:34.329Z,11.03
2019-05-22T18:07:06.783Z,10.35
2019-05-22T18:09:38.563Z,10.88
2019-05-22T18:12:11.410Z,10.80
2019-05-22T18:14:43.629Z,11.03
2019-05-22T18:17:15.939Z,11.48
2019-05-22T18:19:48.011Z,11.05
2019-05-22T18:22:20.132Z,10.63
2019-05-22T18:24:51.868Z,11.43
2019-05-22T18:27:25.368Z,12.18
2019-05-22T18:29:57.179Z,11.88
2019-05-22T18:32:31.580Z,13.00
2019-05-22T18:35:02.964Z,13.65
2019-05-22T18:37:34.717Z,13.30
2019-05-22T18:40:09.373Z,13.85
2019-05-22T18:42:41.414Z,12.63
2019-05-22T18:45:14.428Z,12.93
2019-05-22T18:47:47.259Z,12.93
2019-05-22T18:50:19.148Z,12.50
2019-05-22T18:52:52.048Z,12.70
2019-05-22T18:55:24.288Z,13.78
2019-05-22T18:57:56.395Z,13.48
2019-05-22T19:00:29.257Z,12.78
2019-05-22T19:03:01.219Z,13.00
2019-05-22T19:05:33.904Z,13.62
2019-05-22T19:08:07.900Z,13.08
2019-05-22T19:10:40.180Z,11.20
2019-05-22T19:13:14.610Z,11.90
2019-05-22T19:15:46.968Z,12.18
2019-05-22T19:18:19.726Z,12.03
2019-05-22T19:20:51.737Z,12.35
2019-05-22T19:23:24.501Z,12.47
2019-05-22T19:25:59.322Z,11.95
2019-05-22T19:28:43.519Z,12.53
2019-05-22T19:31:07.041Z,13.05
2019-05-22T19:33:39.647Z,14.03
2019-05-22T19:36:11.987Z,13.75
2019-05-22T19:38:43.965Z,13.45
2019-05-22T19:41:16.838Z,14.03
2019-05-22T19:43:49.516Z,13.25
2019-05-22T19:46:21.530Z,13.70
2019-05-22T19:48:54.735Z,13.22
2019-05-22T19:51:27.318Z,12.45
2019-05-22T19:54:00.954Z,13.58
2019-05-22T19:56:34.129Z,12.03
2019-05-22T19:59:08.858Z,12.93
2019-05-22T20:01:40.952Z,12.07
2019-05-22T20:04:13.846Z,12.77
2019-05-22T20:06:46.019Z,13.43
2019-05-22T20:09:19.692Z,13.20
2019-05-22T20:11:51.801Z,13.18
2019-05-22T20:14:25.367Z,13.10
2019-05-22T20:16:59.866Z,12.53
2019-05-22T20:19:32.065Z,12.68
2019-05-22T20:22:04.525Z,10.93
2019-05-22T20:24:36.783Z,10.90
2019-05-22T20:27:09.989Z,10.13
2019-05-22T20:29:42.307Z,10.03
2019-05-22T20:32:15.660Z,9.53
2019-05-22T20:34:48.783Z,8.20
2019-05-22T20:37:21.518Z,7.73
2019-05-22T20:39:54.060Z,7.00
2019-05-22T20:42:27.006Z,6.40
2019-05-22T20:44:59.639Z,5.85
2019-05-22T20:47:32.392Z,5.20
2019-05-22T20:50:06.504Z,5.20
2019-05-22T20:52:39.760Z,4.90
2019-05-22T20:55:12.708Z,5.12
2019-05-22T20:57:44.992Z,5.40
2019-05-22T21:00:19.743Z,5.70
2019-05-22T21:02:54.142Z,5.90
2019-05-22T21:09:27.151Z,6.40
2019-05-22T21:15:48.324Z,6.20
2019-05-22T21:18:58.023Z,6.85
2019-05-22T21:21:30.999Z,6.65
2019-05-22T21:24:11.221Z,6.42
2019-05-22T21:26:38.921Z,6.10
2019-05-22T21:29:29.070Z,6.00
2019-05-22T21:32:01.889Z,6.37
2019-05-22T21:34:34.975Z,6.10
2019-05-22T21:37:26.082Z,6.03
2019-05-22T21:40:00.609Z,6.28
2019-05-22T21:50:11.141Z,7.50
2019-05-22T21:53:19.993Z,6.87
2019-05-22T21:59:19.721Z,7.58
2019-05-22T22:01:53.481Z,7.40
2019-05-22T22:07:34.386Z,7.90
2019-05-22T22:10:43.720Z,7.08
2019-05-22T22:13:17.709Z,8.13
2019-05-22T22:16:09.993Z,7.28
2019-05-22T22:19:54.127Z,7.28
2019-05-22T22:23:39.303Z,8.23
2019-05-22T22:27:24.349Z,8.35
2019-05-22T22:52:39.956Z,8.45
2019-05-22T22:55:14.545Z,7.95
2019-05-22T22:57:47.483Z,7.95
2019-05-22T23:00:21.567Z,7.65
2019-05-22T23:02:54.682Z,7.80
2019-05-22T23:05:26.647Z,8.08
2019-05-22T23:07:59.915Z,7.67
2019-05-22T23:10:32.951Z,8.55
2019-05-22T23:13:07.241Z,8.93
2019-05-22T23:15:40.342Z,8.73
2019-05-22T23:18:14.948Z,9.28
2019-05-22T23:20:46.517Z,9.45
2019-05-22T23:23:17.659Z,9.33
2019-05-22T23:25:49.725Z,9.68
2019-05-22T23:28:34.111Z,9.90
2019-05-22T23:34:03.270Z,9.85
2019-05-22T23:36:39.309Z,11.35
2019-05-22T23:40:06.097Z,10.03
2019-05-22T23:42:58.971Z,10.15
2019-05-22T23:45:31.201Z,10.15
2019-05-22T23:48:07.407Z,10.75
2019-05-22T23:50:40.302Z,10.38
2019-05-22T23:57:32.243Z,10.80
